createdAt,value
2023-03-25T00:00:22.779Z,3.23
2023-03-25T00:02:52.429Z,4.53
2023-03-25T00:05:22.756Z,5.72
2023-03-25T00:07:52.659Z,5.53
2023-03-25T00:10:21.987Z,3.63
2023-03-25T00:12:49.627Z,4.50
2023-03-25T00:15:17.928Z,5.27
2023-03-25T00:17:45.683Z,5.25
2023-03-25T00:20:14.140Z,4.47
2023-03-25T00:22:44.120Z,4.20
2023-03-25T00:25:18.950Z,5.03
2023-03-25T00:27:50.921Z,5.68
2023-03-25T00:30:20.886Z,3.08
2023-03-25T00:32:49.945Z,4.38
2023-03-25T00:35:19.487Z,3.95
2023-03-25T00:37:48.280Z,4.22
2023-03-25T00:40:15.929Z,3.72
2023-03-25T00:42:44.852Z,3.78
2023-03-25T00:45:13.891Z,4.25
2023-03-25T00:47:41.615Z,4.82
2023-03-25T00:50:09.973Z,4.28
2023-03-25T00:52:37.704Z,6.75
2023-03-25T00:55:06.709Z,5.40
2023-03-25T00:57:34.445Z,5.10
2023-03-25T01:00:02.104Z,5.07
2023-03-25T01:02:31.232Z,5.45
2023-03-25T01:04:59.963Z,5.40
2023-03-25T01:07:29.416Z,5.10
2023-03-25T01:09:58.435Z,4.90
2023-03-25T01:12:27.127Z,7.43
2023-03-25T01:14:55.371Z,2.10
2023-03-25T01:17:23.282Z,3.90
2023-03-25T01:19:52.862Z,3.05
2023-03-25T01:22:20.831Z,5.38
2023-03-25T01:24:48.498Z,3.05
2023-03-25T01:27:16.103Z,4.63
2023-03-25T01:29:43.731Z,2.85
2023-03-25T01:32:11.463Z,1.67
2023-03-25T01:34:39.926Z,2.70
2023-03-25T01:37:09.802Z,1.15
2023-03-25T01:39:37.717Z,2.25
2023-03-25T01:42:06.009Z,1.38
2023-03-25T01:45:12.548Z,0.50
2023-03-25T01:47:40.838Z,1.25
2023-03-25T01:50:14.708Z,0.70
2023-03-25T01:52:46.786Z,1.30
2023-03-25T01:55:14.974Z,1.65
2023-03-25T01:57:46.125Z,0.55
2023-03-25T02:00:16.024Z,1.65
2023-03-25T02:02:45.593Z,0.93
2023-03-25T02:05:19.877Z,0.70
2023-03-25T02:07:50.793Z,0.85
2023-03-25T02:10:19.341Z,1.10
2023-03-25T02:12:47.136Z,1.33
2023-03-25T02:15:17.953Z,0.80
2023-03-25T02:18:06.495Z,1.80
2023-03-25T02:21:03.795Z,1.83
2023-03-25T02:23:58.090Z,1.13
2023-03-25T02:26:56.237Z,1.65
2023-03-25T02:29:37.928Z,2.47
2023-03-25T02:32:21.770Z,1.45
2023-03-25T02:35:27.990Z,3.65
2023-03-25T02:38:26.513Z,2.92
2023-03-25T02:41:02.239Z,3.50
2023-03-25T02:43:33.853Z,3.08
2023-03-25T02:46:05.569Z,4.03
2023-03-25T02:48:38.737Z,2.65
2023-03-25T02:51:11.820Z,2.78
2023-03-25T02:53:43.851Z,2.67
2023-03-25T02:56:16.067Z,2.83
2023-03-25T02:58:46.884Z,1.92
2023-03-25T03:01:16.027Z,2.93
2023-03-25T03:03:44.248Z,3.13
2023-03-25T03:06:17.467Z,2.78
2023-03-25T03:09:09.013Z,4.05
2023-03-25T03:11:45.924Z,1.33
2023-03-25T03:14:31.700Z,3.70
2023-03-25T03:17:08.142Z,3.88
2023-03-25T03:19:41.570Z,3.42
2023-03-25T03:22:22.091Z,4.25
2023-03-25T03:24:58.934Z,2.05
2023-03-25T03:27:33.879Z,3.20
2023-03-25T03:30:11.556Z,2.95
2023-03-25T03:32:46.838Z,5.10
2023-03-25T03:35:19.944Z,4.28
2023-03-25T03:37:52.343Z,3.20
2023-03-25T03:40:25.959Z,4.78
2023-03-25T03:42:57.745Z,2.55
2023-03-25T03:45:30.636Z,3.90
2023-03-25T03:48:04.191Z,4.55
2023-03-25T03:50:37.180Z,4.25
2023-03-25T03:53:09.713Z,4.75
2023-03-25T03:55:42.806Z,3.65
2023-03-25T03:58:15.629Z,4.35
2023-03-25T04:00:50.646Z,4.40
2023-03-25T04:03:24.676Z,3.95
2023-03-25T04:05:58.804Z,4.68
2023-03-25T04:08:31.801Z,4.00
2023-03-25T04:11:05.510Z,6.05
2023-03-25T04:13:36.384Z,6.93
2023-03-25T04:16:04.956Z,4.45
2023-03-25T04:18:33.734Z,5.80
2023-03-25T04:21:01.831Z,5.68
2023-03-25T04:23:30.944Z,3.72
2023-03-25T04:26:02.603Z,5.05
2023-03-25T04:28:31.759Z,7.22
2023-03-25T04:31:00.602Z,4.88
2023-03-25T04:33:32.121Z,5.55
2023-03-25T04:36:02.025Z,5.57
2023-03-25T04:38:30.506Z,6.45
2023-03-25T04:41:00.408Z,4.45
2023-03-25T04:43:29.553Z,5.93
2023-03-25T04:45:57.609Z,5.53
2023-03-25T04:48:29.855Z,5.03
2023-03-25T04:50:57.928Z,3.58
2023-03-25T04:53:25.883Z,4.32
2023-03-25T04:55:54.443Z,6.20
2023-03-25T04:58:22.283Z,3.40
2023-03-25T05:00:53.099Z,5.88
2023-03-25T05:03:23.998Z,3.40
2023-03-25T05:05:52.821Z,4.60
2023-03-25T05:08:21.724Z,6.13
2023-03-25T05:10:49.634Z,3.20
2023-03-25T05:13:18.693Z,3.90
2023-03-25T05:15:46.637Z,5.18
2023-03-25T05:18:17.018Z,6.70
2023-03-25T05:20:46.954Z,8.10
2023-03-25T05:23:16.462Z,5.18
2023-03-25T05:25:44.353Z,5.97
2023-03-25T05:28:13.810Z,6.28
2023-03-25T05:30:42.173Z,5.57
2023-03-25T05:33:10.353Z,4.63
2023-03-25T05:35:40.076Z,8.43
2023-03-25T05:38:08.756Z,8.50
2023-03-25T05:40:37.769Z,7.90
2023-03-25T05:43:06.585Z,10.82
2023-03-25T05:45:36.322Z,11.18
2023-03-25T05:48:04.817Z,9.77
2023-03-25T05:50:32.708Z,11.98
2023-03-25T05:53:01.661Z,12.05
2023-03-25T05:55:29.471Z,9.02
2023-03-25T05:57:58.785Z,7.38
2023-03-25T06:00:26.540Z,7.10
2023-03-25T06:02:54.857Z,10.93
2023-03-25T06:05:24.398Z,11.50
2023-03-25T06:07:55.962Z,7.03
2023-03-25T06:10:25.842Z,10.75
2023-03-25T06:12:54.348Z,9.60
2023-03-25T06:15:29.247Z,9.80
2023-03-25T06:17:57.236Z,11.13
2023-03-25T06:20:25.054Z,10.20
2023-03-25T06:22:52.980Z,10.32
2023-03-25T06:25:21.816Z,9.88
2023-03-25T06:27:51.641Z,8.13
2023-03-25T06:30:21.130Z,9.07
2023-03-25T06:32:50.538Z,15.10
2023-03-25T06:35:20.413Z,13.18
2023-03-25T06:37:49.415Z,13.75
2023-03-25T06:40:17.313Z,10.17
2023-03-25T06:42:45.041Z,12.40
2023-03-25T06:45:14.199Z,10.18
2023-03-25T06:47:41.925Z,13.45
2023-03-25T06:50:10.342Z,11.23
2023-03-25T06:52:37.985Z,15.07
2023-03-25T06:55:06.803Z,9.95
2023-03-25T06:57:34.418Z,11.43
2023-03-25T07:00:02.229Z,9.07
2023-03-25T07:02:31.437Z,12.83
2023-03-25T07:05:00.790Z,9.38
2023-03-25T07:07:28.495Z,9.80
2023-03-25T07:09:56.556Z,13.10
2023-03-25T07:12:24.442Z,11.60
2023-03-25T07:14:53.352Z,9.95
2023-03-25T07:17:21.427Z,10.95
2023-03-25T07:19:50.696Z,8.35
2023-03-25T07:22:18.582Z,10.80
2023-03-25T07:24:46.334Z,8.70
2023-03-25T07:27:15.672Z,12.18
2023-03-25T07:29:43.491Z,11.00
2023-03-25T07:32:11.121Z,10.68
2023-03-25T07:34:39.310Z,11.53
2023-03-25T07:37:09.173Z,8.65
2023-03-25T07:39:37.221Z,9.37
2023-03-25T07:42:07.298Z,11.20
2023-03-25T07:44:34.986Z,11.80
2023-03-25T07:47:02.611Z,10.73
2023-03-25T07:49:30.712Z,11.65
2023-03-25T07:51:58.446Z,11.55
2023-03-25T07:54:28.441Z,9.15
2023-03-25T07:56:56.137Z,10.50
2023-03-25T07:59:23.904Z,8.30
2023-03-25T08:01:51.589Z,8.80
2023-03-25T08:04:19.285Z,9.55
2023-03-25T08:06:47.600Z,8.00
2023-03-25T08:09:15.261Z,11.32
2023-03-25T08:11:44.226Z,7.13
2023-03-25T08:14:12.063Z,7.22
2023-03-25T08:16:39.745Z,6.75
2023-03-25T08:19:07.776Z,7.85
2023-03-25T08:21:35.494Z,5.53
2023-03-25T08:24:04.604Z,5.75
2023-03-25T08:26:33.603Z,6.18
2023-03-25T08:29:04.216Z,7.90
2023-03-25T08:31:33.651Z,6.03
2023-03-25T08:34:02.502Z,5.20
2023-03-25T08:36:30.216Z,5.60
2023-03-25T08:38:58.031Z,3.88
2023-03-25T08:41:26.131Z,5.63
2023-03-25T08:43:53.793Z,4.47
2023-03-25T08:46:23.128Z,4.35
2023-03-25T08:48:51.058Z,5.25
2023-03-25T08:51:19.101Z,4.22
2023-03-25T08:53:46.712Z,5.30
2023-03-25T08:56:14.507Z,6.38
2023-03-25T08:58:42.153Z,5.45
2023-03-25T09:01:09.780Z,3.40
2023-03-25T09:03:40.862Z,3.53
2023-03-25T09:06:09.393Z,2.83
2023-03-25T09:08:37.857Z,4.97
2023-03-25T09:11:06.041Z,4.53
2023-03-25T09:13:33.703Z,3.47
2023-03-25T09:16:01.440Z,5.18
2023-03-25T09:18:31.868Z,4.43
2023-03-25T09:21:01.592Z,4.32
2023-03-25T09:23:29.723Z,4.40
2023-03-25T09:26:01.385Z,3.53
2023-03-25T09:28:29.529Z,4.13
2023-03-25T09:30:57.943Z,4.32
2023-03-25T09:33:27.550Z,4.30
2023-03-25T09:35:56.138Z,5.15
2023-03-25T09:38:25.441Z,4.97
2023-03-25T09:40:53.267Z,2.95
2023-03-25T09:43:51.574Z,4.50
2023-03-25T09:46:19.647Z,4.68
2023-03-25T09:48:49.423Z,4.63
2023-03-25T09:51:22.952Z,4.00
2023-03-25T09:53:57.231Z,5.95
2023-03-25T09:56:28.732Z,4.33
2023-03-25T09:59:01.345Z,4.07
2023-03-25T10:01:40.327Z,5.70
2023-03-25T10:04:41.118Z,4.72
2023-03-25T10:07:18.320Z,4.53
2023-03-25T10:09:57.388Z,3.83
2023-03-25T10:12:35.980Z,4.47
2023-03-25T10:15:15.059Z,3.00
2023-03-25T10:17:56.493Z,3.53
2023-03-25T10:20:41.888Z,4.50
2023-03-25T10:23:19.022Z,3.90
2023-03-25T10:25:53.372Z,3.30
2023-03-25T10:28:28.294Z,2.80
2023-03-25T10:30:56.816Z,3.45
2023-03-25T10:33:34.349Z,2.00
2023-03-25T10:36:04.695Z,2.83
2023-03-25T10:38:34.781Z,3.42
2023-03-25T10:41:15.572Z,3.97
2023-03-25T10:43:44.702Z,4.28
2023-03-25T10:46:19.365Z,3.83
2023-03-25T10:48:48.332Z,2.57
2023-03-25T10:51:18.526Z,3.63
2023-03-25T10:53:50.026Z,3.78
2023-03-25T10:56:23.204Z,2.97
2023-03-25T10:58:53.799Z,1.98
2023-03-25T11:01:29.520Z,1.98
2023-03-25T11:04:00.228Z,3.22
2023-03-25T11:06:30.876Z,2.37
2023-03-25T11:09:15.355Z,2.00
2023-03-25T11:11:46.225Z,2.92
2023-03-25T11:14:14.194Z,2.20
2023-03-25T11:16:46.102Z,2.17
2023-03-25T11:19:21.987Z,2.50
2023-03-25T11:21:55.460Z,4.25
2023-03-25T11:24:28.184Z,3.28
2023-03-25T11:26:57.783Z,2.30
2023-03-25T11:29:28.325Z,1.70
2023-03-25T11:32:07.335Z,3.65
2023-03-25T11:34:41.817Z,6.80
2023-03-25T11:37:17.908Z,9.10
2023-03-25T11:39:50.973Z,7.95
2023-03-25T11:42:30.290Z,4.03
2023-03-25T11:44:59.668Z,6.93
2023-03-25T11:47:31.409Z,4.88
2023-03-25T11:49:59.505Z,4.78
2023-03-25T11:52:32.444Z,7.65
2023-03-25T11:55:02.322Z,2.72
2023-03-25T11:57:37.931Z,4.72
2023-03-25T12:00:18.264Z,3.10
2023-03-25T12:02:45.961Z,4.00
2023-03-25T12:05:15.453Z,5.28
2023-03-25T12:07:45.624Z,5.43
2023-03-25T12:10:19.744Z,4.25
2023-03-25T12:13:01.598Z,5.38
2023-03-25T12:15:40.796Z,5.27
2023-03-25T12:18:35.679Z,5.18
2023-03-25T12:21:09.428Z,3.73
2023-03-25T12:23:49.363Z,3.35
2023-03-25T12:26:19.988Z,3.45
2023-03-25T12:29:14.099Z,6.38
2023-03-25T12:31:58.386Z,5.03
2023-03-25T12:34:39.783Z,4.00
2023-03-25T12:37:20.339Z,3.80
2023-03-25T12:40:06.733Z,3.13
2023-03-25T12:42:43.353Z,3.25
2023-03-25T12:45:30.132Z,4.00
2023-03-25T12:48:03.564Z,2.22
2023-03-25T12:50:43.457Z,4.90
2023-03-25T12:53:25.848Z,2.97
2023-03-25T12:56:04.686Z,4.22
2023-03-25T12:58:52.175Z,2.60
2023-03-25T13:01:31.367Z,3.15
2023-03-25T13:04:32.535Z,3.25
2023-03-25T13:07:05.337Z,3.88
2023-03-25T13:09:38.686Z,8.02
2023-03-25T13:12:12.651Z,4.60
2023-03-25T13:14:44.351Z,6.57
2023-03-25T13:17:24.105Z,3.85
2023-03-25T13:20:05.160Z,2.43
2023-03-25T13:22:36.404Z,3.53
2023-03-25T13:25:08.229Z,2.78
2023-03-25T13:27:41.533Z,2.63
2023-03-25T13:30:17.910Z,3.15
2023-03-25T13:32:51.004Z,5.38
2023-03-25T13:35:24.671Z,3.28
2023-03-25T13:37:57.401Z,3.95
2023-03-25T13:40:28.880Z,3.72
2023-03-25T13:43:00.545Z,4.38
2023-03-25T13:45:32.579Z,4.05
2023-03-25T13:48:10.004Z,4.55
2023-03-25T13:50:39.071Z,3.30
2023-03-25T13:53:11.809Z,4.53
2023-03-25T13:55:45.237Z,3.75
2023-03-25T13:58:44.917Z,7.13
2023-03-25T14:01:53.018Z,3.15
2023-03-25T14:04:40.026Z,4.60
2023-03-25T14:07:49.119Z,3.20
2023-03-25T14:10:40.876Z,3.92
2023-03-25T14:13:12.636Z,3.58
2023-03-25T14:15:45.047Z,4.50
2023-03-25T14:18:18.649Z,4.22
2023-03-25T14:20:48.091Z,4.35
2023-03-25T14:23:20.883Z,3.80
2023-03-25T14:25:53.558Z,2.83
2023-03-25T14:28:35.587Z,3.35
2023-03-25T14:31:18.018Z,6.93
2023-03-25T14:34:26.368Z,7.35
2023-03-25T14:37:28.873Z,4.97
2023-03-25T14:40:00.727Z,3.30
2023-03-25T14:42:44.635Z,3.90
2023-03-25T14:45:51.573Z,5.10
2023-03-25T14:48:30.782Z,3.50
2023-03-25T14:51:10.738Z,2.78
2023-03-25T14:53:39.457Z,6.07
2023-03-25T14:56:16.631Z,3.80
2023-03-25T14:58:44.877Z,4.70
2023-03-25T15:01:18.259Z,4.68
2023-03-25T15:03:48.262Z,3.93
2023-03-25T15:06:18.643Z,4.63
2023-03-25T15:08:55.265Z,4.60
2023-03-25T15:11:34.416Z,4.45
2023-03-25T15:14:06.920Z,4.68
2023-03-25T15:16:37.818Z,4.45
2023-03-25T15:19:09.157Z,4.17
2023-03-25T15:22:11.263Z,3.45
2023-03-25T15:24:40.574Z,4.20
2023-03-25T15:27:21.214Z,5.38
2023-03-25T15:30:01.170Z,3.73
2023-03-25T15:32:42.807Z,3.30
2023-03-25T15:35:37.139Z,4.78
2023-03-25T15:38:32.487Z,3.25
2023-03-25T15:41:13.961Z,6.75
2023-03-25T15:44:10.643Z,3.40
2023-03-25T15:46:55.380Z,4.45
2023-03-25T15:49:47.854Z,4.10
2023-03-25T15:52:31.716Z,3.30
2023-03-25T15:55:06.701Z,5.65
2023-03-25T15:57:38.606Z,4.97
2023-03-25T16:00:15.151Z,5.68
2023-03-25T16:02:49.402Z,5.70
2023-03-25T16:05:19.849Z,3.92
2023-03-25T16:07:48.189Z,5.28
2023-03-25T16:10:19.357Z,5.72
2023-03-25T16:12:48.232Z,4.53
2023-03-25T16:15:23.651Z,4.50
2023-03-25T16:17:51.656Z,6.28
2023-03-25T16:20:23.157Z,5.68
2023-03-25T16:22:54.597Z,5.30
2023-03-25T16:25:27.558Z,4.25
2023-03-25T16:27:57.502Z,9.55
2023-03-25T16:30:30.762Z,4.95
2023-03-25T16:33:13.611Z,5.03
2023-03-25T16:35:44.017Z,6.25
2023-03-25T16:38:15.494Z,4.17
2023-03-25T16:40:46.894Z,3.83
2023-03-25T16:43:18.033Z,9.05
2023-03-25T16:45:49.727Z,5.20
2023-03-25T16:48:19.436Z,6.88
2023-03-25T16:50:47.513Z,5.88
2023-03-25T16:53:17.426Z,5.05
2023-03-25T16:55:48.812Z,5.17
2023-03-25T16:58:20.962Z,5.13
2023-03-25T17:00:52.451Z,5.53
2023-03-25T17:03:40.079Z,4.27
2023-03-25T17:06:19.377Z,8.25
2023-03-25T17:08:50.963Z,6.07
2023-03-25T17:11:18.885Z,4.80
2023-03-25T17:13:52.030Z,5.67
2023-03-25T17:16:22.362Z,3.38
2023-03-25T17:18:52.856Z,6.70
2023-03-25T17:21:26.549Z,5.45
2023-03-25T17:23:55.928Z,5.32
2023-03-25T17:26:26.431Z,3.65
2023-03-25T17:29:00.001Z,3.25
2023-03-25T17:31:33.744Z,4.32
2023-03-25T17:34:05.383Z,7.53
2023-03-25T17:36:35.231Z,4.63
2023-03-25T17:39:05.149Z,4.93
2023-03-25T17:41:38.616Z,5.75
2023-03-25T17:44:07.991Z,4.35
2023-03-25T17:46:37.064Z,3.67
2023-03-25T17:49:14.925Z,4.45
2023-03-25T17:51:42.587Z,3.85
2023-03-25T17:54:10.863Z,3.13
2023-03-25T17:56:39.459Z,3.67
2023-03-25T17:59:09.060Z,5.00
2023-03-25T18:01:38.066Z,2.42
2023-03-25T18:04:06.223Z,3.35
2023-03-25T18:06:33.867Z,3.03
2023-03-25T18:09:02.184Z,3.22
2023-03-25T18:11:29.793Z,3.17
2023-03-25T18:13:57.456Z,2.63
2023-03-25T18:16:25.435Z,2.08
2023-03-25T18:18:54.510Z,3.25
2023-03-25T18:21:23.232Z,5.25
2023-03-25T18:23:50.876Z,6.40
2023-03-25T18:26:19.975Z,3.33
2023-03-25T18:28:48.438Z,5.00
2023-03-25T18:31:17.766Z,5.93
2023-03-25T18:33:47.177Z,4.00
2023-03-25T18:36:16.251Z,4.07
2023-03-25T18:38:44.540Z,7.43
2023-03-25T18:41:14.160Z,9.43
2023-03-25T18:43:41.910Z,8.95
2023-03-25T18:46:12.313Z,13.68
2023-03-25T18:48:40.023Z,7.50
2023-03-25T18:51:07.890Z,7.70
2023-03-25T18:53:36.885Z,19.75
2023-03-25T18:56:05.086Z,22.38
2023-03-25T18:58:34.385Z,19.23
2023-03-25T19:01:03.406Z,24.13
2023-03-25T19:03:31.502Z,10.55
2023-03-25T19:06:00.543Z,3.60
2023-03-25T19:08:29.246Z,12.97
2023-03-25T19:11:08.087Z,4.88
2023-03-25T19:13:40.304Z,7.13
2023-03-25T19:16:08.820Z,3.08
2023-03-25T19:18:36.651Z,6.00
2023-03-25T19:21:04.779Z,5.50
2023-03-25T19:23:32.743Z,8.07
2023-03-25T19:26:02.137Z,13.32
2023-03-25T19:28:30.050Z,17.83
2023-03-25T19:31:02.042Z,10.57
2023-03-25T19:33:31.729Z,7.95
2023-03-25T19:36:01.492Z,4.78
2023-03-25T19:38:30.261Z,6.00
2023-03-25T19:41:10.750Z,5.88
2023-03-25T19:43:39.271Z,4.55
2023-03-25T19:46:07.745Z,10.55
2023-03-25T19:48:36.777Z,5.60
2023-03-25T19:51:05.220Z,2.85
2023-03-25T19:53:33.270Z,5.70
2023-03-25T19:56:04.113Z,4.85
2023-03-25T19:58:34.617Z,4.78
2023-03-25T20:01:03.359Z,3.35
2023-03-25T20:03:33.114Z,3.10
2023-03-25T20:06:02.641Z,4.25
2023-03-25T20:08:32.049Z,5.50
2023-03-25T20:10:59.971Z,4.60
2023-03-25T20:13:28.035Z,5.50
2023-03-25T20:15:57.300Z,4.45
2023-03-25T20:18:25.439Z,4.40
2023-03-25T20:20:53.308Z,4.60
2023-03-25T20:23:21.199Z,5.18
2023-03-25T20:25:51.062Z,5.70
2023-03-25T20:28:19.051Z,4.88
2023-03-25T20:30:47.044Z,3.35
2023-03-25T20:33:16.178Z,5.30
2023-03-25T20:35:44.480Z,6.38
2023-03-25T20:38:14.106Z,3.63
2023-03-25T20:40:45.051Z,6.47
2023-03-25T20:43:14.591Z,7.18
2023-03-25T20:45:43.118Z,6.82
2023-03-25T20:48:11.261Z,4.07
2023-03-25T20:50:40.806Z,4.97
2023-03-25T20:53:08.817Z,6.50
2023-03-25T20:55:37.289Z,6.15
2023-03-25T20:58:05.874Z,5.35
2023-03-25T21:00:34.197Z,6.63
2023-03-25T21:03:02.210Z,6.30
2023-03-25T21:05:29.904Z,6.68
2023-03-25T21:07:58.976Z,8.00
2023-03-25T21:10:28.331Z,6.38
2023-03-25T21:12:56.266Z,9.18
2023-03-25T21:15:24.000Z,7.63
2023-03-25T21:17:51.736Z,6.20
2023-03-25T21:20:21.915Z,6.32
2023-03-25T21:22:50.849Z,4.85
2023-03-25T21:25:20.236Z,6.00
2023-03-25T21:27:47.970Z,5.53
2023-03-25T21:30:16.082Z,5.63
2023-03-25T21:32:44.227Z,5.43
2023-03-25T21:35:12.072Z,6.45
2023-03-25T21:37:40.351Z,7.30
2023-03-25T21:40:11.340Z,7.53
2023-03-25T21:42:42.159Z,6.95
2023-03-25T21:45:13.424Z,7.22
2023-03-25T21:47:43.925Z,8.60
2023-03-25T21:50:13.460Z,7.13
2023-03-25T21:52:46.648Z,7.65
2023-03-25T21:55:15.681Z,7.73
2023-03-25T21:57:47.960Z,6.10
2023-03-25T22:00:18.036Z,7.77
2023-03-25T22:02:47.308Z,6.60
2023-03-25T22:05:17.345Z,6.63
2023-03-25T22:07:45.662Z,6.35
2023-03-25T22:10:13.294Z,5.45
2023-03-25T22:12:41.173Z,6.95
2023-03-25T22:15:12.499Z,9.90
2023-03-25T22:17:40.459Z,7.82
2023-03-25T22:20:10.274Z,5.60
2023-03-25T22:22:38.092Z,6.43
2023-03-25T22:25:06.948Z,7.63
2023-03-25T22:27:34.750Z,6.55
2023-03-25T22:30:02.545Z,10.82
2023-03-25T22:32:33.793Z,7.45
2023-03-25T22:35:02.499Z,9.40
2023-03-25T22:37:30.208Z,6.57
2023-03-25T22:39:57.868Z,22.10
2023-03-25T22:42:26.769Z,24.10
2023-03-25T22:44:54.476Z,12.40
2023-03-25T22:47:22.162Z,11.43
2023-03-25T22:49:51.394Z,9.15
2023-03-25T22:52:19.282Z,6.97
2023-03-25T22:54:47.026Z,9.30
2023-03-25T22:57:14.657Z,9.50
2023-03-25T22:59:42.394Z,10.90
2023-03-25T23:02:12.838Z,14.30
2023-03-25T23:04:40.710Z,11.15
2023-03-25T23:07:09.799Z,10.63
2023-03-25T23:09:45.028Z,10.73
2023-03-25T23:12:15.602Z,9.43
2023-03-25T23:14:48.657Z,10.77
2023-03-25T23:17:16.742Z,11.35
2023-03-25T23:19:45.349Z,9.60
2023-03-25T23:22:15.081Z,10.05
2023-03-25T23:24:42.721Z,10.35
2023-03-25T23:27:12.145Z,9.65
2023-03-25T23:29:41.579Z,10.82
2023-03-25T23:32:10.594Z,12.82
2023-03-25T23:34:40.207Z,14.40
2023-03-25T23:37:09.639Z,12.50
2023-03-25T23:39:40.413Z,9.95
2023-03-25T23:42:08.374Z,9.80
2023-03-25T23:44:36.360Z,9.35
2023-03-25T23:47:04.432Z,14.00
2023-03-25T23:49:33.465Z,12.80
2023-03-25T23:52:01.272Z,10.27
2023-03-25T23:54:29.157Z,9.95
2023-03-25T23:56:58.747Z,11.23
2023-03-25T23:59:26.351Z,12.20
